sensor_id;sensor_type;location;lat;lon;timestamp;pressure;altitude;pressure_sealevel;temperature;humidity
37066;BME280;22981;43.080;25.550;2023-03-25T00:01:10;99171.98;;;8.39;64.55
37066;BME280;22981;43.080;25.550;2023-03-25T00:03:38;99167.91;;;8.37;64.56
37066;BME280;22981;43.080;25.550;2023-03-25T00:06:11;99164.39;;;8.36;64.62
37066;BME280;22981;43.080;25.550;2023-03-25T00:08:39;99171.06;;;8.36;64.67
37066;BME280;22981;43.080;25.550;2023-03-25T00:11:07;99161.53;;;8.38;64.71
37066;BME280;22981;43.080;25.550;2023-03-25T00:13:35;99153.92;;;8.41;64.62
37066;BME280;22981;43.080;25.550;2023-03-25T00:16:03;99153.72;;;8.36;64.67
37066;BME280;22981;43.080;25.550;2023-03-25T00:18:32;99153.32;;;8.33;64.77
37066;BME280;22981;43.080;25.550;2023-03-25T00:21:01;99150.77;;;8.28;64.83
37066;BME280;22981;43.080;25.550;2023-03-25T00:23:30;99149.98;;;8.21;64.91
37066;BME280;22981;43.080;25.550;2023-03-25T00:25:58;99149.39;;;8.13;65.05
37066;BME280;22981;43.080;25.550;2023-03-25T00:28:28;99148.28;;;8.11;65.13
37066;BME280;22981;43.080;25.550;2023-03-25T00:30:58;99146.54;;;8.14;65.15
37066;BME280;22981;43.080;25.550;2023-03-25T00:33:26;99147.66;;;8.09;65.12
37066;BME280;22981;43.080;25.550;2023-03-25T00:35:55;99148.63;;;8.06;65.26
37066;BME280;22981;43.080;25.550;2023-03-25T00:38:30;99149.96;;;8.06;65.32
37066;BME280;22981;43.080;25.550;2023-03-25T00:43:44;99141.04;;;8.02;65.32
37066;BME280;22981;43.080;25.550;2023-03-25T00:46:12;99143.00;;;7.98;65.35
37066;BME280;22981;43.080;25.550;2023-03-25T00:48:39;99140.53;;;7.96;65.42
37066;BME280;22981;43.080;25.550;2023-03-25T00:51:07;99134.39;;;7.96;65.49
37066;BME280;22981;43.080;25.550;2023-03-25T00:53:36;99141.27;;;7.94;65.50
37066;BME280;22981;43.080;25.550;2023-03-25T00:56:04;99138.72;;;7.90;65.48
37066;BME280;22981;43.080;25.550;2023-03-25T00:58:32;99135.58;;;7.77;65.71
37066;BME280;22981;43.080;25.550;2023-03-25T01:01:06;99131.58;;;7.77;65.83
37066;BME280;22981;43.080;25.550;2023-03-25T01:03:30;99124.00;;;7.74;65.93
37066;BME280;22981;43.080;25.550;2023-03-25T01:06:00;99121.14;;;7.76;65.94
37066;BME280;22981;43.080;25.550;2023-03-25T01:08:28;99121.44;;;7.77;65.89
37066;BME280;22981;43.080;25.550;2023-03-25T01:10:57;99122.89;;;7.73;65.93
37066;BME280;22981;43.080;25.550;2023-03-25T01:13:25;99120.86;;;7.62;66.07
37066;BME280;22981;43.080;25.550;2023-03-25T01:15:52;99122.22;;;7.55;66.20
37066;BME280;22981;43.080;25.550;2023-03-25T01:18:20;99115.67;;;7.44;66.41
37066;BME280;22981;43.080;25.550;2023-03-25T01:20:47;99114.85;;;7.44;66.48
37066;BME280;22981;43.080;25.550;2023-03-25T01:23:15;99112.19;;;7.44;66.49
37066;BME280;22981;43.080;25.550;2023-03-25T01:25:42;99106.98;;;7.46;66.47
37066;BME280;22981;43.080;25.550;2023-03-25T01:28:10;99102.87;;;7.44;66.41
37066;BME280;22981;43.080;25.550;2023-03-25T01:30:38;99107.19;;;7.38;66.52
37066;BME280;22981;43.080;25.550;2023-03-25T01:33:05;99108.82;;;7.39;66.58
37066;BME280;22981;43.080;25.550;2023-03-25T01:35:33;99103.50;;;7.39;66.55
37066;BME280;22981;43.080;25.550;2023-03-25T01:38:01;99102.79;;;7.41;66.52
37066;BME280;22981;43.080;25.550;2023-03-25T01:40:29;99098.47;;;7.40;66.54
37066;BME280;22981;43.080;25.550;2023-03-25T01:42:57;99100.94;;;7.42;66.57
37066;BME280;22981;43.080;25.550;2023-03-25T01:45:29;99095.20;;;7.38;66.61
37066;BME280;22981;43.080;25.550;2023-03-25T01:48:06;99093.87;;;7.38;66.57
37066;BME280;22981;43.080;25.550;2023-03-25T01:50:32;99092.03;;;7.32;66.62
37066;BME280;22981;43.080;25.550;2023-03-25T01:53:02;99091.95;;;7.30;66.67
37066;BME280;22981;43.080;25.550;2023-03-25T01:55:32;99088.87;;;7.19;66.64
37066;BME280;22981;43.080;25.550;2023-03-25T01:58:03;99083.56;;;7.06;66.90
37066;BME280;22981;43.080;25.550;2023-03-25T02:00:33;99086.55;;;7.07;66.94
37066;BME280;22981;43.080;25.550;2023-03-25T02:03:01;99082.12;;;7.10;66.90
37066;BME280;22981;43.080;25.550;2023-03-25T02:06:02;99079.47;;;7.10;66.85
37066;BME280;22981;43.080;25.550;2023-03-25T02:08:34;99071.48;;;7.10;66.85
37066;BME280;22981;43.080;25.550;2023-03-25T02:11:03;99080.20;;;7.08;66.87
37066;BME280;22981;43.080;25.550;2023-03-25T02:13:32;99072.51;;;7.09;66.91
37066;BME280;22981;43.080;25.550;2023-03-25T02:16:32;99077.84;;;7.09;66.94
37066;BME280;22981;43.080;25.550;2023-03-25T02:25:04;99078.56;;;7.00;66.94
37066;BME280;22981;43.080;25.550;2023-03-25T02:38:50;99072.95;;;6.86;67.01
37066;BME280;22981;43.080;25.550;2023-03-25T02:41:24;99064.25;;;6.82;67.04
37066;BME280;22981;43.080;25.550;2023-03-25T02:46:26;99064.86;;;6.77;67.11
37066;BME280;22981;43.080;25.550;2023-03-25T02:49:00;99066.48;;;6.71;67.22
37066;BME280;22981;43.080;25.550;2023-03-25T02:51:47;99063.82;;;6.71;67.36
37066;BME280;22981;43.080;25.550;2023-03-25T02:54:16;99063.30;;;6.72;67.37
37066;BME280;22981;43.080;25.550;2023-03-25T02:56:47;99056.66;;;6.72;67.31
37066;BME280;22981;43.080;25.550;2023-03-25T02:59:16;99051.85;;;6.71;67.36
37066;BME280;22981;43.080;25.550;2023-03-25T03:01:45;99050.73;;;6.70;67.34
37066;BME280;22981;43.080;25.550;2023-03-25T03:04:15;99049.11;;;6.69;67.33
37066;BME280;22981;43.080;25.550;2023-03-25T03:06:42;99047.87;;;6.65;67.38
37066;BME280;22981;43.080;25.550;2023-03-25T03:11:46;99049.48;;;6.59;67.60
37066;BME280;22981;43.080;25.550;2023-03-25T03:14:26;99044.19;;;6.52;67.66
37066;BME280;22981;43.080;25.550;2023-03-25T03:17:06;99037.00;;;6.46;67.73
37066;BME280;22981;43.080;25.550;2023-03-25T03:25:08;99039.89;;;6.38;67.61
37066;BME280;22981;43.080;25.550;2023-03-25T03:27:48;99036.30;;;6.35;67.55
37066;BME280;22981;43.080;25.550;2023-03-25T03:33:04;99039.65;;;6.33;67.60
37066;BME280;22981;43.080;25.550;2023-03-25T03:35:43;99034.96;;;6.35;67.55
37066;BME280;22981;43.080;25.550;2023-03-25T03:38:11;99036.39;;;6.31;67.41
37066;BME280;22981;43.080;25.550;2023-03-25T03:40:42;99041.89;;;6.23;67.58
37066;BME280;22981;43.080;25.550;2023-03-25T03:43:16;99035.64;;;6.20;67.65
37066;BME280;22981;43.080;25.550;2023-03-25T03:45:46;99042.20;;;6.17;67.62
37066;BME280;22981;43.080;25.550;2023-03-25T03:48:26;99031.96;;;6.14;67.71
37066;BME280;22981;43.080;25.550;2023-03-25T03:50:56;99031.54;;;6.11;67.79
37066;BME280;22981;43.080;25.550;2023-03-25T03:53:31;99033.59;;;6.09;67.77
37066;BME280;22981;43.080;25.550;2023-03-25T03:56:13;99028.67;;;6.06;67.87
37066;BME280;22981;43.080;25.550;2023-03-25T03:58:42;99029.19;;;6.05;67.93
37066;BME280;22981;43.080;25.550;2023-03-25T04:04:05;99027.04;;;6.05;67.91
37066;BME280;22981;43.080;25.550;2023-03-25T04:09:32;99040.59;;;5.99;68.02
37066;BME280;22981;43.080;25.550;2023-03-25T04:12:13;99038.45;;;5.92;68.12
37066;BME280;22981;43.080;25.550;2023-03-25T04:14:39;99038.30;;;5.89;68.10
37066;BME280;22981;43.080;25.550;2023-03-25T04:17:07;99042.97;;;5.81;68.13
37066;BME280;22981;43.080;25.550;2023-03-25T04:19:35;99041.64;;;5.81;68.24
37066;BME280;22981;43.080;25.550;2023-03-25T04:22:04;99039.11;;;5.83;68.18
37066;BME280;22981;43.080;25.550;2023-03-25T04:24:32;99042.06;;;5.84;68.16
37066;BME280;22981;43.080;25.550;2023-03-25T04:27:01;99038.90;;;5.85;68.14
37066;BME280;22981;43.080;25.550;2023-03-25T04:29:31;99047.38;;;5.84;68.19
37066;BME280;22981;43.080;25.550;2023-03-25T04:31:59;99050.98;;;5.87;68.16
37066;BME280;22981;43.080;25.550;2023-03-25T04:34:28;99050.77;;;5.89;68.18
37066;BME280;22981;43.080;25.550;2023-03-25T04:36:55;99051.52;;;5.93;68.14
37066;BME280;22981;43.080;25.550;2023-03-25T04:39:24;99051.97;;;5.86;68.03
37066;BME280;22981;43.080;25.550;2023-03-25T04:41:53;99051.53;;;5.76;68.26
37066;BME280;22981;43.080;25.550;2023-03-25T04:44:22;99049.60;;;5.74;68.35
37066;BME280;22981;43.080;25.550;2023-03-25T04:46:51;99050.94;;;5.74;68.38
37066;BME280;22981;43.080;25.550;2023-03-25T04:49:20;99052.05;;;5.75;68.45
37066;BME280;22981;43.080;25.550;2023-03-25T04:51:50;99051.45;;;5.80;68.38
37066;BME280;22981;43.080;25.550;2023-03-25T04:54:19;99055.35;;;5.84;68.33
37066;BME280;22981;43.080;25.550;2023-03-25T04:56:49;99057.06;;;5.81;68.35
37066;BME280;22981;43.080;25.550;2023-03-25T04:59:18;99063.92;;;5.80;68.48
37066;BME280;22981;43.080;25.550;2023-03-25T05:01:47;99063.19;;;5.75;68.56
37066;BME280;22981;43.080;25.550;2023-03-25T05:04:16;99065.80;;;5.68;68.78
37066;BME280;22981;43.080;25.550;2023-03-25T05:06:48;99065.80;;;5.68;69.02
37066;BME280;22981;43.080;25.550;2023-03-25T05:09:16;99062.55;;;5.73;69.06
37066;BME280;22981;43.080;25.550;2023-03-25T05:11:45;99060.54;;;5.82;69.00
37066;BME280;22981;43.080;25.550;2023-03-25T05:14:15;99058.29;;;5.96;68.78
37066;BME280;22981;43.080;25.550;2023-03-25T05:16:44;99066.20;;;6.13;68.65
37066;BME280;22981;43.080;25.550;2023-03-25T05:19:12;99062.34;;;6.29;68.54
37066;BME280;22981;43.080;25.550;2023-03-25T05:21:40;99060.55;;;6.43;68.40
37066;BME280;22981;43.080;25.550;2023-03-25T05:24:09;99066.98;;;6.58;68.21
37066;BME280;22981;43.080;25.550;2023-03-25T05:26:40;99072.02;;;6.70;68.12
37066;BME280;22981;43.080;25.550;2023-03-25T05:29:11;99065.25;;;6.81;68.12
37066;BME280;22981;43.080;25.550;2023-03-25T05:31:43;99069.05;;;6.95;68.05
37066;BME280;22981;43.080;25.550;2023-03-25T05:34:11;99067.81;;;7.05;67.93
37066;BME280;22981;43.080;25.550;2023-03-25T05:36:39;99064.20;;;7.15;67.97
37066;BME280;22981;43.080;25.550;2023-03-25T05:39:07;99069.61;;;7.31;67.91
37066;BME280;22981;43.080;25.550;2023-03-25T05:41:36;99065.28;;;7.43;67.90
37066;BME280;22981;43.080;25.550;2023-03-25T05:44:08;99068.39;;;7.62;67.81
37066;BME280;22981;43.080;25.550;2023-03-25T05:46:38;99063.11;;;7.78;67.68
37066;BME280;22981;43.080;25.550;2023-03-25T05:49:05;99052.84;;;7.88;67.47
37066;BME280;22981;43.080;25.550;2023-03-25T05:51:33;99055.86;;;7.98;67.50
37066;BME280;22981;43.080;25.550;2023-03-25T05:54:04;99056.53;;;8.10;67.33
37066;BME280;22981;43.080;25.550;2023-03-25T05:56:36;99057.91;;;8.19;67.18
37066;BME280;22981;43.080;25.550;2023-03-25T05:59:03;99052.39;;;8.29;67.08
37066;BME280;22981;43.080;25.550;2023-03-25T06:01:31;99050.28;;;8.45;67.00
37066;BME280;22981;43.080;25.550;2023-03-25T06:03:59;99051.09;;;8.61;66.79
37066;BME280;22981;43.080;25.550;2023-03-25T06:06:26;99051.52;;;8.74;66.63
37066;BME280;22981;43.080;25.550;2023-03-25T06:08:54;99044.86;;;8.83;66.48
37066;BME280;22981;43.080;25.550;2023-03-25T06:11:22;99045.92;;;8.91;66.40
37066;BME280;22981;43.080;25.550;2023-03-25T06:13:49;99047.81;;;9.09;66.31
37066;BME280;22981;43.080;25.550;2023-03-25T06:16:19;99046.63;;;9.33;66.03
37066;BME280;22981;43.080;25.550;2023-03-25T06:18:49;99053.02;;;9.50;65.65
37066;BME280;22981;43.080;25.550;2023-03-25T06:21:19;99051.48;;;9.61;65.40
37066;BME280;22981;43.080;25.550;2023-03-25T06:23:48;99054.14;;;9.70;65.20
37066;BME280;22981;43.080;25.550;2023-03-25T06:26:16;99051.02;;;9.82;64.90
37066;BME280;22981;43.080;25.550;2023-03-25T06:28:44;99054.36;;;9.87;64.84
37066;BME280;22981;43.080;25.550;2023-03-25T06:31:17;99048.98;;;9.96;64.81
37066;BME280;22981;43.080;25.550;2023-03-25T06:33:46;99042.80;;;10.04;64.54
37066;BME280;22981;43.080;25.550;2023-03-25T06:36:16;99051.94;;;10.15;64.52
37066;BME280;22981;43.080;25.550;2023-03-25T06:38:45;99046.84;;;10.35;64.40
37066;BME280;22981;43.080;25.550;2023-03-25T06:41:13;99054.10;;;10.58;64.11
37066;BME280;22981;43.080;25.550;2023-03-25T06:43:43;99048.45;;;10.77;63.49
37066;BME280;22981;43.080;25.550;2023-03-25T06:46:10;99051.02;;;10.96;62.94
37066;BME280;22981;43.080;25.550;2023-03-25T06:48:38;99051.49;;;11.16;62.55
37066;BME280;22981;43.080;25.550;2023-03-25T06:51:05;99057.88;;;11.39;62.18
37066;BME280;22981;43.080;25.550;2023-03-25T06:53:33;99061.36;;;11.63;61.80
37066;BME280;22981;43.080;25.550;2023-03-25T06:56:00;99057.08;;;11.88;61.36
37066;BME280;22981;43.080;25.550;2023-03-25T06:58:28;99059.05;;;12.07;60.71
37066;BME280;22981;43.080;25.550;2023-03-25T07:00:57;99052.23;;;12.16;60.46
37066;BME280;22981;43.080;25.550;2023-03-25T07:03:26;99055.47;;;12.30;60.25
37066;BME280;22981;43.080;25.550;2023-03-25T07:05:54;99055.44;;;12.44;59.55
37066;BME280;22981;43.080;25.550;2023-03-25T07:08:21;99054.58;;;12.55;59.03
37066;BME280;22981;43.080;25.550;2023-03-25T07:10:49;99049.45;;;12.70;58.73
37066;BME280;22981;43.080;25.550;2023-03-25T07:13:16;99046.69;;;12.82;58.34
37066;BME280;22981;43.080;25.550;2023-03-25T07:15:44;99040.50;;;12.98;58.28
37066;BME280;22981;43.080;25.550;2023-03-25T07:18:11;99046.67;;;13.16;57.99
37066;BME280;22981;43.080;25.550;2023-03-25T07:20:39;99043.47;;;13.36;57.66
37066;BME280;22981;43.080;25.550;2023-03-25T07:23:08;99036.70;;;13.52;57.47
37066;BME280;22981;43.080;25.550;2023-03-25T07:25:36;99037.72;;;13.68;57.26
37066;BME280;22981;43.080;25.550;2023-03-25T07:28:04;99035.19;;;13.81;56.79
37066;BME280;22981;43.080;25.550;2023-03-25T07:30:31;99029.46;;;13.97;56.79
37066;BME280;22981;43.080;25.550;2023-03-25T07:32:59;99034.23;;;14.17;56.52
37066;BME280;22981;43.080;25.550;2023-03-25T07:35:27;99033.02;;;14.29;56.44
37066;BME280;22981;43.080;25.550;2023-03-25T07:37:54;99036.14;;;14.46;56.28
37066;BME280;22981;43.080;25.550;2023-03-25T07:40:22;99030.70;;;14.65;55.95
37066;BME280;22981;43.080;25.550;2023-03-25T07:42:49;99037.03;;;14.84;55.93
37066;BME280;22981;43.080;25.550;2023-03-25T07:45:17;99038.52;;;14.99;55.69
37066;BME280;22981;43.080;25.550;2023-03-25T07:47:44;99037.28;;;15.17;55.40
37066;BME280;22981;43.080;25.550;2023-03-25T07:50:13;99033.63;;;15.38;55.08
37066;BME280;22981;43.080;25.550;2023-03-25T07:52:41;99032.39;;;15.61;54.67
37066;BME280;22981;43.080;25.550;2023-03-25T07:55:09;99034.67;;;15.82;54.02
37066;BME280;22981;43.080;25.550;2023-03-25T07:57:37;99039.04;;;16.01;53.95
37066;BME280;22981;43.080;25.550;2023-03-25T08:00:06;99034.77;;;16.23;53.67
37066;BME280;22981;43.080;25.550;2023-03-25T08:02:33;99023.74;;;16.47;53.28
37066;BME280;22981;43.080;25.550;2023-03-25T08:05:01;99025.15;;;16.75;52.72
37066;BME280;22981;43.080;25.550;2023-03-25T08:07:28;99022.95;;;16.95;51.75
37066;BME280;22981;43.080;25.550;2023-03-25T08:09:56;99022.41;;;17.11;51.28
37066;BME280;22981;43.080;25.550;2023-03-25T08:12:23;99016.95;;;17.29;50.81
37066;BME280;22981;43.080;25.550;2023-03-25T08:14:51;99018.78;;;17.54;50.25
37066;BME280;22981;43.080;25.550;2023-03-25T08:17:18;99018.71;;;17.77;49.45
37066;BME280;22981;43.080;25.550;2023-03-25T08:19:46;99013.52;;;17.88;49.30
37066;BME280;22981;43.080;25.550;2023-03-25T08:22:13;99014.05;;;17.93;48.94
37066;BME280;22981;43.080;25.550;2023-03-25T08:24:41;99016.42;;;18.05;48.04
37066;BME280;22981;43.080;25.550;2023-03-25T08:27:08;99010.90;;;18.20;47.30
37066;BME280;22981;43.080;25.550;2023-03-25T08:29:36;99010.00;;;18.37;47.33
37066;BME280;22981;43.080;25.550;2023-03-25T08:32:04;99003.09;;;18.52;46.74
37066;BME280;22981;43.080;25.550;2023-03-25T08:34:32;98999.47;;;18.67;46.82
37066;BME280;22981;43.080;25.550;2023-03-25T08:37:01;98997.18;;;18.85;45.87
37066;BME280;22981;43.080;25.550;2023-03-25T08:39:29;98990.22;;;19.03;45.20
37066;BME280;22981;43.080;25.550;2023-03-25T08:41:58;98987.02;;;19.22;45.04
37066;BME280;22981;43.080;25.550;2023-03-25T08:44:26;98985.45;;;19.42;44.22
37066;BME280;22981;43.080;25.550;2023-03-25T08:46:53;98982.47;;;19.65;44.30
37066;BME280;22981;43.080;25.550;2023-03-25T08:49:21;98980.84;;;19.88;43.36
37066;BME280;22981;43.080;25.550;2023-03-25T08:51:48;98977.64;;;20.03;43.38
37066;BME280;22981;43.080;25.550;2023-03-25T08:54:16;98980.89;;;20.21;42.93
37066;BME280;22981;43.080;25.550;2023-03-25T08:56:44;98977.63;;;20.40;42.54
37066;BME280;22981;43.080;25.550;2023-03-25T08:59:11;98973.72;;;20.65;42.56
37066;BME280;22981;43.080;25.550;2023-03-25T09:01:39;98965.61;;;20.93;42.44
37066;BME280;22981;43.080;25.550;2023-03-25T09:04:09;98966.39;;;21.23;42.48
37066;BME280;22981;43.080;25.550;2023-03-25T09:06:36;98965.12;;;21.48;42.13
37066;BME280;22981;43.080;25.550;2023-03-25T09:09:05;98960.09;;;21.67;42.19
37066;BME280;22981;43.080;25.550;2023-03-25T09:11:35;98953.77;;;21.83;41.85
37066;BME280;22981;43.080;25.550;2023-03-25T09:14:02;98950.72;;;21.98;41.36
37066;BME280;22981;43.080;25.550;2023-03-25T09:16:31;98952.81;;;22.15;41.05
37066;BME280;22981;43.080;25.550;2023-03-25T09:19:00;98947.79;;;22.31;40.46
37066;BME280;22981;43.080;25.550;2023-03-25T09:21:28;98948.18;;;22.49;40.59
37066;BME280;22981;43.080;25.550;2023-03-25T09:23:56;98945.00;;;22.56;40.19
37066;BME280;22981;43.080;25.550;2023-03-25T09:26:24;98941.47;;;22.55;40.46
37066;BME280;22981;43.080;25.550;2023-03-25T09:28:51;98941.33;;;22.60;40.31
37066;BME280;22981;43.080;25.550;2023-03-25T09:31:21;98941.20;;;22.65;40.24
37066;BME280;22981;43.080;25.550;2023-03-25T09:33:49;98937.66;;;22.76;39.86
37066;BME280;22981;43.080;25.550;2023-03-25T09:36:16;98935.16;;;22.88;39.08
37066;BME280;22981;43.080;25.550;2023-03-25T09:38:44;98934.59;;;22.89;39.15
37066;BME280;22981;43.080;25.550;2023-03-25T09:41:29;98931.47;;;22.95;39.03
37066;BME280;22981;43.080;25.550;2023-03-25T09:44:09;98924.53;;;23.09;39.02
37066;BME280;22981;43.080;25.550;2023-03-25T09:46:35;98922.01;;;23.21;39.25
37066;BME280;22981;43.080;25.550;2023-03-25T09:49:07;98918.00;;;23.28;38.43
37066;BME280;22981;43.080;25.550;2023-03-25T09:51:35;98915.83;;;23.27;38.69
37066;BME280;22981;43.080;25.550;2023-03-25T09:56:49;98918.80;;;23.28;38.38
37066;BME280;22981;43.080;25.550;2023-03-25T09:59:20;98916.16;;;23.26;38.35
37066;BME280;22981;43.080;25.550;2023-03-25T10:02:01;98921.38;;;23.33;38.12
37066;BME280;22981;43.080;25.550;2023-03-25T10:07:27;98919.39;;;23.36;37.62
37066;BME280;22981;43.080;25.550;2023-03-25T10:10:12;98924.64;;;23.44;37.79
37066;BME280;22981;43.080;25.550;2023-03-25T10:12:57;98914.92;;;23.49;37.60
37066;BME280;22981;43.080;25.550;2023-03-25T10:15:37;98909.69;;;23.50;37.21
37066;BME280;22981;43.080;25.550;2023-03-25T10:18:10;98917.72;;;23.46;37.11
37066;BME280;22981;43.080;25.550;2023-03-25T10:23:51;98905.09;;;23.68;36.42
37066;BME280;22981;43.080;25.550;2023-03-25T10:26:29;98901.66;;;23.73;37.02
37066;BME280;22981;43.080;25.550;2023-03-25T10:29:07;98900.46;;;23.77;36.51
37066;BME280;22981;43.080;25.550;2023-03-25T10:31:33;98892.40;;;23.81;36.50
37066;BME280;22981;43.080;25.550;2023-03-25T10:34:06;98895.23;;;23.87;36.45
37066;BME280;22981;43.080;25.550;2023-03-25T10:36:37;98889.43;;;23.97;36.75
37066;BME280;22981;43.080;25.550;2023-03-25T10:39:10;98884.05;;;24.03;36.66
37066;BME280;22981;43.080;25.550;2023-03-25T10:41:36;98883.73;;;24.05;37.02
37066;BME280;22981;43.080;25.550;2023-03-25T10:44:08;98882.02;;;24.06;37.06
37066;BME280;22981;43.080;25.550;2023-03-25T10:47:13;98869.16;;;24.07;37.71
37066;BME280;22981;43.080;25.550;2023-03-25T10:49:25;98876.33;;;23.88;37.65
37066;BME280;22981;43.080;25.550;2023-03-25T10:51:53;98870.39;;;23.68;37.44
37066;BME280;22981;43.080;25.550;2023-03-25T10:54:30;98876.05;;;23.52;37.55
37066;BME280;22981;43.080;25.550;2023-03-25T10:57:01;98866.78;;;23.50;37.76
37066;BME280;22981;43.080;25.550;2023-03-25T10:59:43;98868.20;;;23.68;37.54
37066;BME280;22981;43.080;25.550;2023-03-25T11:02:18;98863.96;;;23.73;37.49
37066;BME280;22981;43.080;25.550;2023-03-25T11:04:48;98869.50;;;23.79;37.52
37066;BME280;22981;43.080;25.550;2023-03-25T11:07:19;98865.40;;;23.79;37.46
37066;BME280;22981;43.080;25.550;2023-03-25T11:09:47;98869.83;;;23.78;37.92
37066;BME280;22981;43.080;25.550;2023-03-25T11:12:18;98862.95;;;23.60;37.74
37066;BME280;22981;43.080;25.550;2023-03-25T11:14:54;98862.19;;;23.31;37.76
37066;BME280;22981;43.080;25.550;2023-03-25T11:17:22;98864.16;;;23.19;37.76
37066;BME280;22981;43.080;25.550;2023-03-25T11:20:03;98857.84;;;23.21;37.77
37066;BME280;22981;43.080;25.550;2023-03-25T11:22:34;98852.53;;;23.34;37.71
37066;BME280;22981;43.080;25.550;2023-03-25T11:25:35;98846.46;;;23.54;37.58
37066;BME280;22981;43.080;25.550;2023-03-25T11:27:45;98847.80;;;23.74;37.36
37066;BME280;22981;43.080;25.550;2023-03-25T11:30:22;98845.63;;;23.82;37.11
37066;BME280;22981;43.080;25.550;2023-03-25T11:33:11;98840.80;;;23.79;37.09
37066;BME280;22981;43.080;25.550;2023-03-25T11:35:23;98831.57;;;23.69;36.99
37066;BME280;22981;43.080;25.550;2023-03-25T11:37:58;98831.27;;;23.50;36.95
37066;BME280;22981;43.080;25.550;2023-03-25T11:40:28;98834.87;;;23.31;37.01
37066;BME280;22981;43.080;25.550;2023-03-25T11:42:59;98830.36;;;23.18;37.57
37066;BME280;22981;43.080;25.550;2023-03-25T11:45:35;98831.53;;;23.06;37.57
37066;BME280;22981;43.080;25.550;2023-03-25T11:48:15;98828.60;;;22.82;37.38
37066;BME280;22981;43.080;25.550;2023-03-25T11:50:43;98832.12;;;22.43;37.36
37066;BME280;22981;43.080;25.550;2023-03-25T11:53:11;98823.72;;;22.08;37.49
37066;BME280;22981;43.080;25.550;2023-03-25T11:55:51;98828.63;;;21.86;37.63
37066;BME280;22981;43.080;25.550;2023-03-25T11:58:21;98828.38;;;22.08;37.87
37066;BME280;22981;43.080;25.550;2023-03-25T12:00:51;98826.86;;;22.46;37.50
37066;BME280;22981;43.080;25.550;2023-03-25T12:03:27;98825.13;;;22.70;37.24
37066;BME280;22981;43.080;25.550;2023-03-25T12:06:06;98821.63;;;22.98;36.54
37066;BME280;22981;43.080;25.550;2023-03-25T12:11:28;98826.27;;;23.18;35.77
37066;BME280;22981;43.080;25.550;2023-03-25T12:17:00;98820.11;;;23.58;35.61
37066;BME280;22981;43.080;25.550;2023-03-25T12:19:44;98817.61;;;23.59;34.89
37066;BME280;22981;43.080;25.550;2023-03-25T12:27:42;98816.41;;;23.54;34.38
37066;BME280;22981;43.080;25.550;2023-03-25T12:30:16;98812.70;;;23.33;34.17
37066;BME280;22981;43.080;25.550;2023-03-25T12:35:41;98815.22;;;22.63;34.76
37066;BME280;22981;43.080;25.550;2023-03-25T12:43:52;98818.55;;;22.71;34.70
37066;BME280;22981;43.080;25.550;2023-03-25T12:46:43;98816.30;;;22.73;34.57
37066;BME280;22981;43.080;25.550;2023-03-25T12:52:07;98805.75;;;23.01;34.35
37066;BME280;22981;43.080;25.550;2023-03-25T12:57:15;98796.69;;;23.11;34.25
37066;BME280;22981;43.080;25.550;2023-03-25T13:02:18;98791.25;;;23.29;34.12
37066;BME280;22981;43.080;25.550;2023-03-25T13:04:56;98777.92;;;23.36;34.12
37066;BME280;22981;43.080;25.550;2023-03-25T13:07:28;98777.53;;;23.57;34.27
37066;BME280;22981;43.080;25.550;2023-03-25T13:10:12;98777.60;;;23.81;34.22
37066;BME280;22981;43.080;25.550;2023-03-25T13:12:38;98777.84;;;23.99;34.03
37066;BME280;22981;43.080;25.550;2023-03-25T13:15:20;98775.98;;;23.88;33.32
37066;BME280;22981;43.080;25.550;2023-03-25T13:20:50;98773.59;;;23.52;33.71
37066;BME280;22981;43.080;25.550;2023-03-25T13:23:18;98777.92;;;23.27;33.99
37066;BME280;22981;43.080;25.550;2023-03-25T13:25:54;98782.28;;;22.99;34.10
37066;BME280;22981;43.080;25.550;2023-03-25T13:28:30;98776.20;;;22.74;34.61
37066;BME280;22981;43.080;25.550;2023-03-25T13:30:54;98780.11;;;22.50;35.11
37066;BME280;22981;43.080;25.550;2023-03-25T13:33:27;98775.76;;;22.30;35.59
37066;BME280;22981;43.080;25.550;2023-03-25T13:38:55;98785.27;;;21.98;36.02
37066;BME280;22981;43.080;25.550;2023-03-25T13:41:27;98778.22;;;21.86;36.40
37066;BME280;22981;43.080;25.550;2023-03-25T13:46:35;98771.52;;;21.70;36.37
37066;BME280;22981;43.080;25.550;2023-03-25T13:49:13;98764.89;;;21.62;36.69
37066;BME280;22981;43.080;25.550;2023-03-25T13:51:40;98766.19;;;21.54;36.74
37066;BME280;22981;43.080;25.550;2023-03-25T13:54:26;98771.28;;;21.46;37.07
37066;BME280;22981;43.080;25.550;2023-03-25T13:57:03;98764.84;;;21.42;37.39
37066;BME280;22981;43.080;25.550;2023-03-25T13:59:35;98762.77;;;21.37;37.49
37066;BME280;22981;43.080;25.550;2023-03-25T14:13:28;98758.66;;;21.00;37.02
37066;BME280;22981;43.080;25.550;2023-03-25T14:16:01;98762.34;;;20.93;36.87
37066;BME280;22981;43.080;25.550;2023-03-25T14:18:30;98759.14;;;20.91;37.23
37066;BME280;22981;43.080;25.550;2023-03-25T14:23:34;98756.95;;;21.05;37.51
37066;BME280;22981;43.080;25.550;2023-03-25T14:26:03;98756.70;;;21.04;37.65
37066;BME280;22981;43.080;25.550;2023-03-25T14:28:43;98756.43;;;21.03;37.76
37066;BME280;22981;43.080;25.550;2023-03-25T14:31:28;98754.89;;;20.99;37.79
37066;BME280;22981;43.080;25.550;2023-03-25T14:39:14;98755.72;;;20.72;38.46
37066;BME280;22981;43.080;25.550;2023-03-25T14:41:57;98757.50;;;20.65;38.87
37066;BME280;22981;43.080;25.550;2023-03-25T14:44:31;98753.81;;;20.59;39.03
37066;BME280;22981;43.080;25.550;2023-03-25T14:47:24;98756.15;;;20.52;39.29
37066;BME280;22981;43.080;25.550;2023-03-25T14:49:49;98756.51;;;20.45;39.70
37066;BME280;22981;43.080;25.550;2023-03-25T14:52:30;98760.97;;;20.38;39.99
37066;BME280;22981;43.080;25.550;2023-03-25T14:55:01;98754.03;;;20.32;40.20
37066;BME280;22981;43.080;25.550;2023-03-25T14:57:31;98755.73;;;20.28;40.55